createdAt,value
2022-08-27T00:01:17.323Z,11.38
2022-08-27T00:05:22.241Z,10.10
2022-08-27T00:09:27.142Z,10.48
2022-08-27T00:14:01.578Z,11.48
2022-08-27T00:18:04.939Z,11.57
2022-08-27T00:22:10.305Z,11.50
2022-08-27T00:26:14.274Z,13.02
2022-08-27T00:30:47.866Z,12.85
2022-08-27T00:34:51.816Z,14.38
2022-08-27T00:38:56.463Z,13.52
2022-08-27T00:43:33.428Z,15.00
2022-08-27T00:47:42.288Z,14.15
2022-08-27T00:51:57.552Z,13.40
2022-08-27T00:56:08.480Z,14.60
2022-08-27T01:00:36.695Z,11.23
2022-08-27T01:04:41.400Z,13.18
2022-08-27T01:08:49.517Z,12.85
2022-08-27T01:12:54.751Z,12.15
2022-08-27T01:17:29.350Z,13.50
2022-08-27T01:21:38.197Z,16.05
2022-08-27T01:25:44.346Z,15.55
2022-08-27T01:29:47.925Z,12.88
2022-08-27T01:34:21.540Z,15.77
2022-08-27T01:38:30.498Z,13.90
2022-08-27T01:42:38.995Z,13.15
2022-08-27T01:46:42.464Z,13.55
2022-08-27T01:50:45.666Z,13.75
2022-08-27T01:54:50.963Z,13.95
2022-08-27T01:59:26.386Z,14.43
2022-08-27T02:03:43.187Z,14.75
2022-08-27T02:07:47.145Z,13.63
2022-08-27T02:11:50.385Z,18.25
2022-08-27T02:16:28.549Z,14.20
2022-08-27T02:20:32.298Z,15.45
2022-08-27T02:25:10.252Z,13.95
2022-08-27T02:29:13.662Z,13.60
2022-08-27T02:33:18.151Z,14.48
2022-08-27T02:37:22.434Z,16.42
2022-08-27T02:41:56.079Z,13.98
2022-08-27T02:45:59.577Z,15.40
2022-08-27T02:50:04.256Z,13.63
2022-08-27T02:54:09.510Z,13.98
2022-08-27T02:58:16.644Z,12.98
2022-08-27T03:02:20.125Z,12.55
2022-08-27T03:06:24.808Z,12.93
2022-08-27T03:10:28.193Z,13.43
2022-08-27T03:14:31.396Z,13.57
2022-08-27T03:18:35.351Z,13.80
2022-08-27T03:22:40.325Z,12.90
2022-08-27T03:27:15.512Z,13.52
2022-08-27T03:31:27.221Z,13.60
2022-08-27T03:35:31.498Z,14.20
2022-08-27T03:39:39.078Z,13.93
2022-08-27T03:43:42.222Z,13.48
2022-08-27T03:47:45.410Z,13.55
2022-08-27T03:51:48.886Z,13.85
2022-08-27T03:55:53.491Z,13.82
2022-08-27T03:59:57.129Z,14.57
2022-08-27T04:04:00.477Z,15.07
2022-08-27T04:08:37.352Z,14.02
2022-08-27T04:12:42.492Z,12.98
2022-08-27T04:16:45.668Z,12.23
2022-08-27T04:20:50.566Z,13.65
2022-08-27T04:25:24.716Z,12.20
2022-08-27T04:29:29.723Z,13.30
2022-08-27T04:33:33.229Z,14.43
2022-08-27T04:38:10.253Z,14.48
2022-08-27T04:42:13.601Z,12.85
2022-08-27T04:46:23.174Z,15.32
2022-08-27T04:50:26.395Z,14.48
2022-08-27T04:54:32.837Z,16.13
2022-08-27T04:59:04.974Z,12.27
2022-08-27T05:03:09.568Z,12.93
2022-08-27T05:07:12.734Z,13.05
2022-08-27T05:11:17.812Z,13.20
2022-08-27T05:15:20.939Z,13.55
2022-08-27T05:19:25.486Z,11.23
2022-08-27T05:23:28.888Z,14.13
2022-08-27T05:27:32.103Z,14.32
2022-08-27T05:31:35.979Z,13.45
2022-08-27T05:36:15.890Z,13.15
2022-08-27T05:40:19.219Z,11.85
2022-08-27T05:44:41.126Z,12.50
2022-08-27T05:48:45.267Z,12.00
2022-08-27T05:53:23.778Z,12.15
2022-08-27T05:57:26.998Z,9.88
2022-08-27T06:02:03.630Z,9.52
2022-08-27T06:06:09.609Z,10.98
2022-08-27T06:10:14.576Z,9.77
2022-08-27T06:14:46.408Z,11.20
2022-08-27T06:18:50.337Z,10.88
2022-08-27T06:22:53.429Z,12.02
2022-08-27T06:26:58.169Z,12.57
2022-08-27T06:31:05.283Z,13.48
2022-08-27T06:35:42.386Z,13.52
2022-08-27T06:39:45.626Z,13.63
2022-08-27T06:43:50.821Z,13.57
2022-08-27T06:48:24.658Z,13.48
2022-08-27T06:53:01.246Z,12.10
2022-08-27T06:57:38.612Z,12.77
2022-08-27T07:01:45.377Z,12.40
2022-08-27T07:05:48.517Z,13.75
2022-08-27T07:09:51.740Z,13.63
2022-08-27T07:13:54.853Z,11.73
2022-08-27T07:17:59.915Z,13.23
2022-08-27T07:22:34.982Z,12.13
2022-08-27T07:26:40.226Z,11.25
2022-08-27T07:31:17.177Z,12.23
2022-08-27T07:35:21.832Z,12.32
2022-08-27T07:39:55.517Z,11.88
2022-08-27T07:44:15.931Z,12.35
2022-08-27T07:48:57.407Z,12.68
2022-08-27T07:53:01.957Z,12.73
2022-08-27T07:57:05.617Z,12.80
2022-08-27T08:01:42.287Z,12.15
2022-08-27T08:05:45.569Z,14.38
2022-08-27T08:09:51.152Z,15.32
2022-08-27T08:14:25.269Z,15.88
2022-08-27T08:18:29.473Z,15.00
2022-08-27T08:23:04.351Z,14.48
2022-08-27T08:27:42.432Z,13.73
2022-08-27T08:32:16.599Z,13.02
2022-08-27T08:36:55.173Z,12.30
2022-08-27T08:41:38.541Z,12.68
2022-08-27T08:46:13.552Z,12.45
2022-08-27T08:50:21.402Z,11.05
2022-08-27T08:54:26.992Z,11.57
2022-08-27T08:59:03.454Z,11.80
2022-08-27T09:03:08.701Z,12.68
2022-08-27T09:07:20.465Z,11.70
2022-08-27T09:11:52.091Z,11.35
2022-08-27T09:15:58.356Z,12.02
2022-08-27T09:20:03.102Z,11.98
2022-08-27T09:24:27.145Z,13.50
2022-08-27T09:29:03.139Z,13.02
2022-08-27T09:33:06.364Z,12.77
2022-08-27T09:37:15.340Z,12.57
2022-08-27T09:41:23.989Z,12.27
2022-08-27T09:45:29.919Z,13.45
2022-08-27T09:50:06.821Z,12.95
2022-08-27T09:54:12.986Z,12.25
2022-08-27T09:58:21.715Z,11.35
2022-08-27T10:02:55.643Z,10.45
2022-08-27T10:06:58.740Z,10.90
2022-08-27T10:11:07.959Z,9.50
2022-08-27T10:15:30.439Z,10.05
2022-08-27T10:20:01.094Z,10.32
2022-08-27T10:24:18.282Z,11.38
2022-08-27T10:28:36.965Z,10.95
2022-08-27T10:32:52.913Z,11.48
2022-08-27T10:37:10.783Z,10.65
2022-08-27T10:41:19.610Z,10.75
2022-08-27T10:45:42.653Z,10.55
2022-08-27T10:50:05.038Z,10.60
2022-08-27T10:54:16.582Z,10.35
2022-08-27T10:58:36.941Z,10.05
2022-08-27T11:03:04.044Z,10.77
2022-08-27T11:07:13.318Z,9.45
2022-08-27T11:12:12.825Z,9.98
2022-08-27T11:15:52.638Z,9.68
2022-08-27T11:20:02.620Z,9.52
2022-08-27T11:24:36.254Z,11.25
2022-08-27T11:28:42.765Z,10.95
2022-08-27T11:32:56.332Z,10.75
2022-08-27T11:37:32.367Z,12.75
2022-08-27T11:41:55.773Z,10.80
2022-08-27T11:46:00.603Z,10.45
2022-08-27T11:50:08.616Z,11.73
2022-08-27T11:54:32.178Z,11.25
2022-08-27T11:58:52.873Z,10.52
2022-08-27T12:03:24.354Z,10.38
2022-08-27T12:07:37.227Z,12.23
2022-08-27T12:12:09.402Z,13.18
2022-08-27T12:16:25.845Z,12.68
2022-08-27T12:20:46.923Z,13.88
2022-08-27T12:25:07.786Z,14.70
2022-08-27T12:29:47.821Z,12.88
2022-08-27T12:34:01.816Z,10.98
2022-08-27T12:38:43.770Z,12.85
2022-08-27T12:42:51.646Z,11.43
2022-08-27T12:47:02.976Z,12.07
2022-08-27T12:51:15.074Z,12.38
2022-08-27T12:55:27.884Z,12.02
2022-08-27T12:59:48.310Z,11.75
2022-08-27T13:04:05.483Z,13.10
2022-08-27T13:08:42.227Z,11.35
2022-08-27T13:13:20.530Z,11.90
2022-08-27T13:17:57.186Z,11.45
2022-08-27T13:22:07.848Z,11.80
2022-08-27T13:26:48.765Z,10.80
2022-08-27T13:30:52.351Z,11.02
2022-08-27T13:35:32.506Z,10.07
2022-08-27T13:39:38.894Z,10.60
2022-08-27T13:44:10.866Z,10.07
2022-08-27T13:48:50.272Z,10.32
2022-08-27T13:53:12.854Z,8.73
2022-08-27T13:57:32.522Z,9.32
2022-08-27T14:02:04.853Z,10.63
2022-08-27T14:06:08.493Z,10.27
2022-08-27T14:10:46.667Z,8.82
2022-08-27T14:15:22.652Z,8.75
2022-08-27T14:20:01.306Z,8.75
2022-08-27T14:24:05.314Z,8.52
2022-08-27T14:28:39.682Z,7.70
2022-08-27T14:33:18.116Z,7.82
2022-08-27T14:37:51.834Z,8.13
2022-08-27T14:42:28.786Z,7.88
2022-08-27T14:46:36.123Z,8.10
2022-08-27T14:50:46.260Z,7.78
2022-08-27T14:54:52.487Z,7.38
2022-08-27T14:58:55.766Z,7.57
2022-08-27T15:03:29.912Z,6.72
2022-08-27T15:07:34.460Z,7.38
2022-08-27T15:11:39.848Z,6.45
2022-08-27T15:16:17.856Z,6.95
2022-08-27T15:20:21.181Z,6.38
2022-08-27T15:24:59.755Z,6.40
2022-08-27T15:29:36.885Z,5.85
2022-08-27T15:34:13.826Z,5.43
2022-08-27T15:38:50.352Z,5.90
2022-08-27T15:42:58.926Z,6.57
2022-08-27T15:47:29.525Z,4.85
2022-08-27T15:52:06.211Z,4.80
2022-08-27T15:56:43.173Z,5.68
2022-08-27T16:00:47.991Z,4.25
2022-08-27T16:05:22.791Z,4.63
2022-08-27T16:09:56.692Z,4.90
2022-08-27T16:13:59.948Z,4.25
2022-08-27T16:18:39.410Z,5.22
2022-08-27T16:23:15.607Z,5.07
2022-08-27T16:27:18.779Z,4.78
2022-08-27T16:31:22.182Z,4.30
2022-08-27T16:35:27.237Z,4.30
2022-08-27T16:39:33.749Z,4.30
2022-08-27T16:44:07.954Z,3.70
2022-08-27T16:48:28.811Z,3.47
2022-08-27T16:52:48.162Z,2.83
2022-08-27T16:57:22.187Z,3.30
2022-08-27T17:01:25.829Z,3.50
2022-08-27T17:06:00.071Z,4.30
2022-08-27T17:10:06.965Z,3.67
2022-08-27T17:14:40.320Z,3.42
2022-08-27T17:18:43.722Z,3.90
2022-08-27T17:22:46.898Z,3.00
2022-08-27T17:27:23.640Z,2.95
2022-08-27T17:31:32.489Z,3.08
2022-08-27T17:36:02.801Z,3.00
2022-08-27T17:40:10.649Z,2.97
2022-08-27T17:44:44.846Z,3.05
2022-08-27T17:48:49.406Z,2.72
2022-08-27T17:53:23.450Z,3.22
2022-08-27T17:57:29.510Z,3.35
2022-08-27T18:01:43.977Z,3.25
2022-08-27T18:05:49.562Z,3.15
2022-08-27T18:09:52.877Z,4.05
2022-08-27T18:14:26.792Z,4.40
2022-08-27T18:18:29.962Z,5.22
2022-08-27T18:22:35.000Z,5.40
2022-08-27T18:27:10.038Z,4.60
2022-08-27T18:31:14.617Z,4.57
2022-08-27T18:35:21.240Z,4.85
2022-08-27T18:39:26.005Z,5.38
2022-08-27T18:44:03.145Z,5.13
2022-08-27T18:48:37.839Z,5.00
2022-08-27T18:52:42.840Z,5.10
2022-08-27T18:56:47.479Z,5.38
2022-08-27T19:01:25.322Z,4.53
2022-08-27T19:05:30.093Z,5.75
2022-08-27T19:10:04.840Z,5.90
2022-08-27T19:14:42.834Z,6.07
2022-08-27T19:19:16.341Z,5.35
2022-08-27T19:23:22.136Z,5.00
2022-08-27T19:27:27.644Z,5.43
2022-08-27T19:32:03.455Z,5.95
2022-08-27T19:36:38.521Z,5.32
2022-08-27T19:41:13.104Z,5.50
2022-08-27T19:45:16.329Z,5.30
2022-08-27T19:49:28.042Z,5.03
2022-08-27T19:54:01.837Z,5.05
2022-08-27T19:58:38.285Z,4.78
2022-08-27T20:03:15.357Z,5.10
2022-08-27T20:07:21.940Z,5.20
2022-08-27T20:11:25.140Z,5.47
2022-08-27T20:15:28.687Z,6.00
2022-08-27T20:19:31.907Z,5.82
2022-08-27T20:24:09.449Z,5.57
2022-08-27T20:28:37.718Z,6.55
2022-08-27T20:32:36.677Z,6.80
2022-08-27T20:37:10.807Z,6.50
2022-08-27T20:41:15.462Z,6.90
2022-08-27T20:45:49.236Z,6.80
2022-08-27T20:50:27.160Z,6.05
2022-08-27T20:55:04.282Z,6.65
2022-08-27T20:59:59.949Z,6.70
2022-08-27T21:04:03.220Z,7.10
2022-08-27T21:08:07.868Z,7.03
2022-08-27T21:12:11.052Z,6.43
2022-08-27T21:16:49.600Z,6.10
2022-08-27T21:20:54.572Z,8.05
2022-08-27T21:25:31.328Z,7.40
2022-08-27T21:29:35.102Z,7.70
2022-08-27T21:33:41.838Z,7.13
2022-08-27T21:38:12.634Z,7.43
2022-08-27T21:42:49.908Z,8.13
2022-08-27T21:47:23.840Z,8.02
2022-08-27T21:51:28.842Z,8.30
2022-08-27T21:55:32.018Z,8.65
2022-08-27T21:59:41.061Z,8.85
2022-08-27T22:03:47.113Z,8.38
2022-08-27T22:07:51.762Z,9.10
2022-08-27T22:11:55.626Z,8.27
2022-08-27T22:15:58.929Z,8.55
2022-08-27T22:20:02.204Z,10.00
2022-08-27T22:24:40.528Z,8.52
2022-08-27T22:28:44.168Z,9.88
2022-08-27T22:32:47.512Z,10.02
2022-08-27T22:36:50.688Z,8.68
2022-08-27T22:40:55.628Z,10.02
2022-08-27T22:44:58.737Z,9.35
2022-08-27T22:49:02.028Z,9.73
2022-08-27T22:53:39.430Z,9.32
2022-08-27T22:57:44.581Z,9.90
2022-08-27T23:01:47.887Z,9.00
2022-08-27T23:05:51.238Z,10.18
2022-08-27T23:10:28.645Z,10.15
2022-08-27T23:14:34.419Z,8.82
2022-08-27T23:18:38.714Z,9.52
2022-08-27T23:22:41.930Z,9.88
2022-08-27T23:27:30.643Z,10.35
2022-08-27T23:31:35.260Z,10.35
2022-08-27T23:35:38.873Z,9.30
2022-08-27T23:39:42.354Z,9.75
2022-08-27T23:43:45.779Z,10.25
2022-08-27T23:47:50.318Z,10.07
2022-08-27T23:51:53.711Z,10.55
2022-08-27T23:56:30.762Z,11.00
